sensor_id;sensor_type;location;lat;lon;timestamp;pressure;altitude;pressure_sealevel;temperature;humidity
62617;BME280;62539;51.190;6.808;2022-10-31T00:00:29;101801.13;;;21.06;63.28
62617;BME280;62539;51.190;6.808;2022-10-31T00:02:54;101794.13;;;21.05;63.31
62617;BME280;62539;51.190;6.808;2022-10-31T00:05:20;101782.72;;;21.05;63.63
62617;BME280;62539;51.190;6.808;2022-10-31T00:07:45;101778.28;;;21.05;63.58
62617;BME280;62539;51.190;6.808;2022-10-31T00:10:10;101783.56;;;21.05;63.35
62617;BME280;62539;51.190;6.808;2022-10-31T00:12:36;101785.34;;;21.05;63.43
62617;BME280;62539;51.190;6.808;2022-10-31T00:15:02;101792.38;;;21.04;63.60
62617;BME280;62539;51.190;6.808;2022-10-31T00:17:27;101799.47;;;21.02;63.28
62617;BME280;62539;51.190;6.808;2022-10-31T00:19:52;101805.63;;;21.03;63.71
62617;BME280;62539;51.190;6.808;2022-10-31T00:22:18;101798.63;;;21.02;63.25
62617;BME280;62539;51.190;6.808;2022-10-31T00:24:43;101797.75;;;21.01;63.59
62617;BME280;62539;51.190;6.808;2022-10-31T00:27:09;101794.25;;;21.00;63.54
62617;BME280;62539;51.190;6.808;2022-10-31T00:29:34;101794.19;;;21.02;63.31
62617;BME280;62539;51.190;6.808;2022-10-31T00:31:59;101808.31;;;21.01;63.55
62617;BME280;62539;51.190;6.808;2022-10-31T00:34:25;101793.44;;;20.98;63.64
62617;BME280;62539;51.190;6.808;2022-10-31T00:36:50;101796.03;;;21.00;63.35
62617;BME280;62539;51.190;6.808;2022-10-31T00:39:15;101796.94;;;20.99;63.65
62617;BME280;62539;51.190;6.808;2022-10-31T00:41:41;101808.38;;;20.98;63.62
62617;BME280;62539;51.190;6.808;2022-10-31T00:44:06;101792.56;;;20.98;63.51
62617;BME280;62539;51.190;6.808;2022-10-31T00:46:32;101787.28;;;20.98;63.13
62617;BME280;62539;51.190;6.808;2022-10-31T00:48:57;101796.09;;;20.97;63.46
62617;BME280;62539;51.190;6.808;2022-10-31T00:51:23;101797.91;;;20.96;63.63
62617;BME280;62539;51.190;6.808;2022-10-31T00:53:48;101814.63;;;20.95;63.41
62617;BME280;62539;51.190;6.808;2022-10-31T00:56:13;101822.47;;;20.97;63.80
62617;BME280;62539;51.190;6.808;2022-10-31T00:58:39;101822.47;;;20.97;63.57
62617;BME280;62539;51.190;6.808;2022-10-31T01:01:04;101828.72;;;20.94;63.44
62617;BME280;62539;51.190;6.808;2022-10-31T01:03:32;101833.09;;;20.95;63.70
62617;BME280;62539;51.190;6.808;2022-10-31T01:06:06;101824.31;;;20.95;63.50
62617;BME280;62539;51.190;6.808;2022-10-31T01:08:35;101820.81;;;20.94;63.75
62617;BME280;62539;51.190;6.808;2022-10-31T01:11:11;101815.56;;;20.93;63.63
62617;BME280;62539;51.190;6.808;2022-10-31T01:13:44;101812.91;;;20.94;63.48
62617;BME280;62539;51.190;6.808;2022-10-31T01:16:13;101812.03;;;20.94;63.37
62617;BME280;62539;51.190;6.808;2022-10-31T01:18:41;101818.19;;;20.93;63.84
62617;BME280;62539;51.190;6.808;2022-10-31T01:21:10;101812.09;;;20.91;63.83
62617;BME280;62539;51.190;6.808;2022-10-31T01:23:38;101818.25;;;20.91;63.66
62617;BME280;62539;51.190;6.808;2022-10-31T01:26:10;101811.19;;;20.92;63.58
62617;BME280;62539;51.190;6.808;2022-10-31T01:28:42;101805.97;;;20.90;63.39
62617;BME280;62539;51.190;6.808;2022-10-31T01:31:20;101800.72;;;20.90;63.69
62617;BME280;62539;51.190;6.808;2022-10-31T01:33:47;101801.56;;;20.91;63.60
62617;BME280;62539;51.190;6.808;2022-10-31T01:36:20;101798.09;;;20.89;63.42
62617;BME280;62539;51.190;6.808;2022-10-31T01:38:47;101791.97;;;20.88;63.68
62617;BME280;62539;51.190;6.808;2022-10-31T01:41:17;101788.47;;;20.88;63.76
62617;BME280;62539;51.190;6.808;2022-10-31T01:43:56;101782.44;;;20.82;63.94
62617;BME280;62539;51.190;6.808;2022-10-31T01:46:34;101773.63;;;20.83;64.01
62617;BME280;62539;51.190;6.808;2022-10-31T01:49:11;101786.88;;;20.82;64.06
62617;BME280;62539;51.190;6.808;2022-10-31T01:51:46;101788.59;;;20.83;63.90
62617;BME280;62539;51.190;6.808;2022-10-31T01:54:18;101780.69;;;20.83;63.90
62617;BME280;62539;51.190;6.808;2022-10-31T01:56:50;101771.91;;;20.82;63.80
62617;BME280;62539;51.190;6.808;2022-10-31T01:59:20;101771.03;;;20.82;63.80
62617;BME280;62539;51.190;6.808;2022-10-31T02:01:50;101773.72;;;20.80;63.64
62617;BME280;62539;51.190;6.808;2022-10-31T02:04:17;101765.81;;;20.80;63.99
62617;BME280;62539;51.190;6.808;2022-10-31T02:06:48;101769.31;;;20.81;63.84
62617;BME280;62539;51.190;6.808;2022-10-31T02:09:19;101769.34;;;20.79;64.01
62617;BME280;62539;51.190;6.808;2022-10-31T02:11:51;101769.41;;;20.78;63.80
62617;BME280;62539;51.190;6.808;2022-10-31T02:14:18;101775.53;;;20.78;63.79
62617;BME280;62539;51.190;6.808;2022-10-31T02:16:47;101771.97;;;20.79;64.05
62617;BME280;62539;51.190;6.808;2022-10-31T02:19:18;101780.81;;;20.78;63.95
62617;BME280;62539;51.190;6.808;2022-10-31T02:21:57;101770.28;;;20.77;64.00
62617;BME280;62539;51.190;6.808;2022-10-31T02:24:45;101775.66;;;20.72;64.12
62617;BME280;62539;51.190;6.808;2022-10-31T02:30:20;101775.66;;;20.72;63.88
62617;BME280;62539;51.190;6.808;2022-10-31T02:36:07;101778.47;;;20.66;64.30
62617;BME280;62539;51.190;6.808;2022-10-31T02:38:47;101785.44;;;20.68;64.08
62617;BME280;62539;51.190;6.808;2022-10-31T02:41:44;101790.84;;;20.64;64.14
62617;BME280;62539;51.190;6.808;2022-10-31T02:44:29;101798.66;;;20.67;64.13
62617;BME280;62539;51.190;6.808;2022-10-31T02:47:16;101800.56;;;20.62;64.34
62617;BME280;62539;51.190;6.808;2022-10-31T02:50:04;101793.56;;;20.61;64.34
62617;BME280;62539;51.190;6.808;2022-10-31T02:52:36;101781.09;;;20.66;64.08
62617;BME280;62539;51.190;6.808;2022-10-31T02:57:54;101774.09;;;20.65;64.14
62617;BME280;62539;51.190;6.808;2022-10-31T03:00:24;101778.53;;;20.64;64.25
62617;BME280;62539;51.190;6.808;2022-10-31T03:03:13;101789.19;;;20.60;64.14
62617;BME280;62539;51.190;6.808;2022-10-31T03:06:02;101789.19;;;20.60;64.32
62617;BME280;62539;51.190;6.808;2022-10-31T03:11:33;101795.28;;;20.62;64.10
62617;BME280;62539;51.190;6.808;2022-10-31T03:14:18;101786.56;;;20.60;64.37
62617;BME280;62539;51.190;6.808;2022-10-31T03:16:55;101785.63;;;20.61;64.38
62617;BME280;62539;51.190;6.808;2022-10-31T03:19:29;101786.56;;;20.60;64.43
62617;BME280;62539;51.190;6.808;2022-10-31T03:22:04;101784.78;;;20.60;64.12
62617;BME280;62539;51.190;6.808;2022-10-31T03:24:36;101783.91;;;20.60;64.21
62617;BME280;62539;51.190;6.808;2022-10-31T03:27:03;101783.00;;;20.61;64.11
62617;BME280;62539;51.190;6.808;2022-10-31T03:29:35;101777.72;;;20.61;64.20
62617;BME280;62539;51.190;6.808;2022-10-31T03:32:07;101770.72;;;20.60;64.40
62617;BME280;62539;51.190;6.808;2022-10-31T03:34:39;101781.28;;;20.60;64.08
62617;BME280;62539;51.190;6.808;2022-10-31T03:37:11;101775.19;;;20.58;64.15
62617;BME280;62539;51.190;6.808;2022-10-31T03:39:42;101779.53;;;20.59;64.34
62617;BME280;62539;51.190;6.808;2022-10-31T03:42:23;101784.06;;;20.55;64.56
62617;BME280;62539;51.190;6.808;2022-10-31T03:44:55;101777.81;;;20.58;64.36
62617;BME280;62539;51.190;6.808;2022-10-31T03:47:23;101763.81;;;20.55;64.24
62617;BME280;62539;51.190;6.808;2022-10-31T03:49:49;101772.53;;;20.58;64.34
62617;BME280;62539;51.190;6.808;2022-10-31T03:52:27;101771.78;;;20.54;64.20
62617;BME280;62539;51.190;6.808;2022-10-31T03:55:12;101769.97;;;20.56;64.46
62617;BME280;62539;51.190;6.808;2022-10-31T03:57:45;101768.25;;;20.55;64.21
62617;BME280;62539;51.190;6.808;2022-10-31T04:00:18;101776.16;;;20.55;64.22
62617;BME280;62539;51.190;6.808;2022-10-31T04:02:59;101778.03;;;20.50;64.30
62617;BME280;62539;51.190;6.808;2022-10-31T04:05:26;101769.16;;;20.52;64.25
62617;BME280;62539;51.190;6.808;2022-10-31T04:07:55;101770.06;;;20.51;64.30
62617;BME280;62539;51.190;6.808;2022-10-31T04:10:24;101772.72;;;20.51;64.49
62617;BME280;62539;51.190;6.808;2022-10-31T04:12:58;101763.97;;;20.49;64.42
62617;BME280;62539;51.190;6.808;2022-10-31T04:15:30;101764.84;;;20.50;64.26
62617;BME280;62539;51.190;6.808;2022-10-31T04:17:58;101770.97;;;20.50;64.52
62617;BME280;62539;51.190;6.808;2022-10-31T04:20:33;101774.53;;;20.49;64.53
62617;BME280;62539;51.190;6.808;2022-10-31T04:23:13;101774.59;;;20.46;64.41
62617;BME280;62539;51.190;6.808;2022-10-31T04:25:44;101775.44;;;20.48;64.35
62617;BME280;62539;51.190;6.808;2022-10-31T04:28:09;101767.53;;;20.48;64.67
62617;BME280;62539;51.190;6.808;2022-10-31T04:30:35;101766.66;;;20.48;64.30
62617;BME280;62539;51.190;6.808;2022-10-31T04:33:00;101767.53;;;20.48;64.63
62617;BME280;62539;51.190;6.808;2022-10-31T04:35:26;101760.53;;;20.47;64.53
62617;BME280;62539;51.190;6.808;2022-10-31T04:37:51;101751.75;;;20.47;64.53
62617;BME280;62539;51.190;6.808;2022-10-31T04:40:16;101764.88;;;20.48;64.58
62617;BME280;62539;51.190;6.808;2022-10-31T04:42:42;101763.16;;;20.47;64.42
62617;BME280;62539;51.190;6.808;2022-10-31T04:45:07;101761.41;;;20.48;64.48
62617;BME280;62539;51.190;6.808;2022-10-31T04:47:33;101769.25;;;20.49;64.63
62617;BME280;62539;51.190;6.808;2022-10-31T04:49:59;101756.97;;;20.48;64.42
62617;BME280;62539;51.190;6.808;2022-10-31T04:52:25;101764.84;;;20.50;64.34
62617;BME280;62539;51.190;6.808;2022-10-31T04:54:50;101763.97;;;20.49;64.37
62617;BME280;62539;51.190;6.808;2022-10-31T04:57:15;101759.63;;;20.48;64.39
62617;BME280;62539;51.190;6.808;2022-10-31T04:59:41;101753.44;;;20.49;64.37
62617;BME280;62539;51.190;6.808;2022-10-31T05:02:06;101755.22;;;20.49;64.59
62617;BME280;62539;51.190;6.808;2022-10-31T05:04:31;101742.03;;;20.49;64.57
62617;BME280;62539;51.190;6.808;2022-10-31T05:06:57;101741.16;;;20.48;64.40
62617;BME280;62539;51.190;6.808;2022-10-31T05:09:22;101739.44;;;20.47;64.28
62617;BME280;62539;51.190;6.808;2022-10-31T05:11:48;101741.22;;;20.47;64.23
62617;BME280;62539;51.190;6.808;2022-10-31T05:14:13;101737.69;;;20.48;64.46
62617;BME280;62539;51.190;6.808;2022-10-31T05:16:38;101733.25;;;20.48;64.35
62617;BME280;62539;51.190;6.808;2022-10-31T05:19:04;101733.25;;;20.48;64.44
62617;BME280;62539;51.190;6.808;2022-10-31T05:21:29;101734.13;;;20.49;64.23
62617;BME280;62539;51.190;6.808;2022-10-31T05:23:54;101732.31;;;20.51;64.10
62617;BME280;62539;51.190;6.808;2022-10-31T05:26:20;101734.06;;;20.50;64.38
62617;BME280;62539;51.190;6.808;2022-10-31T05:28:45;101739.25;;;20.53;63.68
62617;BME280;62539;51.190;6.808;2022-10-31T05:31:11;101743.63;;;20.54;63.96
62617;BME280;62539;51.190;6.808;2022-10-31T05:33:36;101735.72;;;20.54;64.29
62617;BME280;62539;51.190;6.808;2022-10-31T05:36:02;101736.63;;;20.53;64.24
62617;BME280;62539;51.190;6.808;2022-10-31T05:38:27;101743.69;;;20.53;64.25
62617;BME280;62539;51.190;6.808;2022-10-31T05:40:56;101734.00;;;20.53;64.26
62617;BME280;62539;51.190;6.808;2022-10-31T05:43:23;101742.81;;;20.52;64.03
62617;BME280;62539;51.190;6.808;2022-10-31T05:45:52;101734.88;;;20.54;64.15
62617;BME280;62539;51.190;6.808;2022-10-31T05:48:18;101730.50;;;20.53;64.19
62617;BME280;62539;51.190;6.808;2022-10-31T05:50:44;101727.81;;;20.54;64.06
62617;BME280;62539;51.190;6.808;2022-10-31T05:53:10;101734.00;;;20.53;64.15
62617;BME280;62539;51.190;6.808;2022-10-31T05:55:35;101729.53;;;20.55;64.42
62617;BME280;62539;51.190;6.808;2022-10-31T05:58:00;101731.34;;;20.53;64.24
62617;BME280;62539;51.190;6.808;2022-10-31T06:00:26;101728.69;;;20.55;64.21
62617;BME280;62539;51.190;6.808;2022-10-31T06:03:00;101726.09;;;20.53;64.55
62617;BME280;62539;51.190;6.808;2022-10-31T06:05:27;101723.44;;;20.53;64.19
62617;BME280;62539;51.190;6.808;2022-10-31T06:07:53;101726.09;;;20.53;64.23
62617;BME280;62539;51.190;6.808;2022-10-31T06:10:19;101733.16;;;20.51;64.42
62617;BME280;62539;51.190;6.808;2022-10-31T06:12:46;101732.19;;;20.55;64.40
62617;BME280;62539;51.190;6.808;2022-10-31T06:15:12;101736.53;;;20.58;64.51
62617;BME280;62539;51.190;6.808;2022-10-31T06:17:38;101732.19;;;20.55;63.76
62617;BME280;62539;51.190;6.808;2022-10-31T06:20:04;101733.09;;;20.54;63.77
62617;BME280;62539;51.190;6.808;2022-10-31T06:22:31;101727.00;;;20.52;63.64
62617;BME280;62539;51.190;6.808;2022-10-31T06:24:56;101725.25;;;20.53;63.86
62617;BME280;62539;51.190;6.808;2022-10-31T06:27:22;101728.72;;;20.53;63.84
62617;BME280;62539;51.190;6.808;2022-10-31T06:29:48;101727.81;;;20.54;63.69
62617;BME280;62539;51.190;6.808;2022-10-31T06:32:14;101729.53;;;20.55;63.86
62617;BME280;62539;51.190;6.808;2022-10-31T06:34:40;101733.88;;;20.58;63.99
62617;BME280;62539;51.190;6.808;2022-10-31T06:37:07;101730.38;;;20.58;63.76
62617;BME280;62539;51.190;6.808;2022-10-31T06:39:33;101728.63;;;20.56;63.70
62617;BME280;62539;51.190;6.808;2022-10-31T06:41:59;101737.50;;;20.54;63.63
62617;BME280;62539;51.190;6.808;2022-10-31T06:44:25;101731.34;;;20.55;63.86
62617;BME280;62539;51.190;6.808;2022-10-31T06:46:50;101732.16;;;20.57;63.60
62617;BME280;62539;51.190;6.808;2022-10-31T06:49:16;101725.16;;;20.56;63.89
62617;BME280;62539;51.190;6.808;2022-10-31T06:51:42;101733.88;;;20.58;64.00
62617;BME280;62539;51.190;6.808;2022-10-31T06:54:07;101726.91;;;20.55;64.00
62617;BME280;62539;51.190;6.808;2022-10-31T06:56:33;101729.53;;;20.57;64.13
62617;BME280;62539;51.190;6.808;2022-10-31T06:58:58;101730.38;;;20.58;64.21
62617;BME280;62539;51.190;6.808;2022-10-31T07:01:24;101733.00;;;20.58;64.15
62617;BME280;62539;51.190;6.808;2022-10-31T07:03:49;101732.09;;;20.59;64.11
62617;BME280;62539;51.190;6.808;2022-10-31T07:06:14;101730.38;;;20.58;64.10
62617;BME280;62539;51.190;6.808;2022-10-31T07:08:40;101739.09;;;20.60;64.05
62617;BME280;62539;51.190;6.808;2022-10-31T07:11:05;101738.19;;;20.61;64.27
62617;BME280;62539;51.190;6.808;2022-10-31T07:13:31;101738.19;;;20.61;64.16
62617;BME280;62539;51.190;6.808;2022-10-31T07:16:01;101741.66;;;20.63;64.58
62617;BME280;62539;51.190;6.808;2022-10-31T07:18:28;101746.91;;;20.63;64.59
62617;BME280;62539;51.190;6.808;2022-10-31T07:20:54;101739.91;;;20.62;64.47
62617;BME280;62539;51.190;6.808;2022-10-31T07:23:19;101743.44;;;20.62;64.64
62617;BME280;62539;51.190;6.808;2022-10-31T07:25:45;101741.72;;;20.60;64.67
62617;BME280;62539;51.190;6.808;2022-10-31T07:28:10;101740.91;;;20.58;64.90
62617;BME280;62539;51.190;6.808;2022-10-31T07:30:37;101740.91;;;20.58;64.74
62617;BME280;62539;51.190;6.808;2022-10-31T07:33:03;101739.16;;;20.58;64.55
62617;BME280;62539;51.190;6.808;2022-10-31T07:35:30;101733.81;;;20.60;64.89
62617;BME280;62539;51.190;6.808;2022-10-31T07:37:56;101743.47;;;20.61;64.64
62617;BME280;62539;51.190;6.808;2022-10-31T07:40:23;101747.81;;;20.62;64.84
62617;BME280;62539;51.190;6.808;2022-10-31T07:42:50;101751.28;;;20.64;65.14
62617;BME280;62539;51.190;6.808;2022-10-31T07:45:18;101753.91;;;20.65;64.80
62617;BME280;62539;51.190;6.808;2022-10-31T07:47:46;101758.19;;;20.68;64.71
62617;BME280;62539;51.190;6.808;2022-10-31T07:50:16;101755.56;;;20.68;64.68
62617;BME280;62539;51.190;6.808;2022-10-31T07:52:44;101761.72;;;20.68;64.67
62617;BME280;62539;51.190;6.808;2022-10-31T07:55:09;101766.94;;;20.70;64.31
62617;BME280;62539;51.190;6.808;2022-10-31T07:57:35;101763.38;;;20.71;64.71
62617;BME280;62539;51.190;6.808;2022-10-31T08:00:06;101766.84;;;20.73;64.49
62617;BME280;62539;51.190;6.808;2022-10-31T08:02:34;101765.03;;;20.75;64.43
62617;BME280;62539;51.190;6.808;2022-10-31T08:05:00;101767.66;;;20.75;64.45
62617;BME280;62539;51.190;6.808;2022-10-31T08:07:27;101756.22;;;20.76;64.31
62617;BME280;62539;51.190;6.808;2022-10-31T08:09:54;101761.50;;;20.78;64.37
62617;BME280;62539;51.190;6.808;2022-10-31T08:12:20;101754.34;;;20.81;64.93
62617;BME280;62539;51.190;6.808;2022-10-31T08:14:46;101748.13;;;20.84;64.92
62617;BME280;62539;51.190;6.808;2022-10-31T08:17:11;101749.78;;;20.88;64.58
62617;BME280;62539;51.190;6.808;2022-10-31T08:19:37;101745.34;;;20.89;64.32
62617;BME280;62539;51.190;6.808;2022-10-31T08:22:02;101746.25;;;20.88;64.06
62617;BME280;62539;51.190;6.808;2022-10-31T08:24:27;101740.13;;;20.87;64.22
62617;BME280;62539;51.190;6.808;2022-10-31T08:26:53;101738.34;;;20.88;64.05
62617;BME280;62539;51.190;6.808;2022-10-31T08:29:19;101735.63;;;20.91;63.96
62617;BME280;62539;51.190;6.808;2022-10-31T08:31:44;101728.44;;;20.96;63.74
62617;BME280;62539;51.190;6.808;2022-10-31T08:34:09;101734.50;;;20.99;63.86
62617;BME280;62539;51.190;6.808;2022-10-31T08:36:35;101738.81;;;21.02;63.72
62617;BME280;62539;51.190;6.808;2022-10-31T08:39:00;101732.53;;;21.06;63.00
62617;BME280;62539;51.190;6.808;2022-10-31T08:41:26;101743.00;;;21.09;63.28
62617;BME280;62539;51.190;6.808;2022-10-31T08:43:52;101744.78;;;21.09;63.36
62617;BME280;62539;51.190;6.808;2022-10-31T08:46:18;101741.25;;;21.08;63.30
62617;BME280;62539;51.190;6.808;2022-10-31T08:48:44;101733.25;;;21.11;63.69
62617;BME280;62539;51.190;6.808;2022-10-31T08:51:10;101731.53;;;21.10;63.15
62617;BME280;62539;51.190;6.808;2022-10-31T08:53:36;101721.75;;;21.14;63.06
62617;BME280;62539;51.190;6.808;2022-10-31T08:56:01;101717.22;;;21.18;63.18
62617;BME280;62539;51.190;6.808;2022-10-31T08:58:27;101717.22;;;21.19;62.97
62617;BME280;62539;51.190;6.808;2022-10-31T09:00:53;101720.69;;;21.20;63.15
62617;BME280;62539;51.190;6.808;2022-10-31T09:03:25;101715.34;;;21.21;63.01
62617;BME280;62539;51.190;6.808;2022-10-31T09:05:55;101718.78;;;21.25;63.40
62617;BME280;62539;51.190;6.808;2022-10-31T09:08:25;101713.50;;;21.25;63.41
62617;BME280;62539;51.190;6.808;2022-10-31T09:10:51;101707.31;;;21.26;62.75
62617;BME280;62539;51.190;6.808;2022-10-31T09:13:20;101708.22;;;21.25;61.72
62617;BME280;62539;51.190;6.808;2022-10-31T09:15:48;101715.16;;;21.27;61.80
62617;BME280;62539;51.190;6.808;2022-10-31T09:18:18;101701.94;;;21.29;62.15
62617;BME280;62539;51.190;6.808;2022-10-31T09:20:46;101700.97;;;21.32;62.22
62617;BME280;62539;51.190;6.808;2022-10-31T09:23:21;101698.28;;;21.33;62.59
62617;BME280;62539;51.190;6.808;2022-10-31T09:25:48;101691.19;;;21.35;62.54
62617;BME280;62539;51.190;6.808;2022-10-31T09:28:18;101695.44;;;21.39;62.22
62617;BME280;62539;51.190;6.808;2022-10-31T09:30:49;101698.00;;;21.42;62.47
62617;BME280;62539;51.190;6.808;2022-10-31T09:33:17;101694.34;;;21.47;62.51
62617;BME280;62539;51.190;6.808;2022-10-31T09:35:43;101682.81;;;21.49;62.45
62617;BME280;62539;51.190;6.808;2022-10-31T09:38:14;101676.56;;;21.52;62.25
62617;BME280;62539;51.190;6.808;2022-10-31T09:40:44;101680.84;;;21.56;62.09
62617;BME280;62539;51.190;6.808;2022-10-31T09:43:26;101680.84;;;21.56;61.42
62617;BME280;62539;51.190;6.808;2022-10-31T09:52:04;101660.28;;;21.66;61.86
62617;BME280;62539;51.190;6.808;2022-10-31T09:54:42;101658.44;;;21.69;61.65
62617;BME280;62539;51.190;6.808;2022-10-31T09:57:15;101662.69;;;21.73;61.73
62617;BME280;62539;51.190;6.808;2022-10-31T09:59:46;101660.75;;;21.79;61.79
62617;BME280;62539;51.190;6.808;2022-10-31T10:05:13;101660.81;;;22.02;61.27
62617;BME280;62539;51.190;6.808;2022-10-31T10:08:07;101650.78;;;22.12;61.12
62617;BME280;62539;51.190;6.808;2022-10-31T10:10:52;101638.16;;;22.21;60.69
62617;BME280;62539;51.190;6.808;2022-10-31T10:13:49;101636.16;;;22.27;60.64
62617;BME280;62539;51.190;6.808;2022-10-31T10:19:12;101630.22;;;22.46;59.78
62617;BME280;62539;51.190;6.808;2022-10-31T10:24:23;101623.03;;;22.50;60.02
62617;BME280;62539;51.190;6.808;2022-10-31T10:27:23;101615.28;;;22.45;59.44
62617;BME280;62539;51.190;6.808;2022-10-31T10:30:00;101616.13;;;22.45;59.58
62617;BME280;62539;51.190;6.808;2022-10-31T10:32:40;101613.53;;;22.44;59.78
62617;BME280;62539;51.190;6.808;2022-10-31T10:38:27;101602.19;;;22.40;59.66
62617;BME280;62539;51.190;6.808;2022-10-31T10:40:53;101600.34;;;22.42;59.74
62617;BME280;62539;51.190;6.808;2022-10-31T10:43:21;101588.84;;;22.43;59.86
62617;BME280;62539;51.190;6.808;2022-10-31T10:49:58;101571.13;;;22.47;59.41
62617;BME280;62539;51.190;6.808;2022-10-31T10:55:17;101568.97;;;22.57;58.87
62617;BME280;62539;51.190;6.808;2022-10-31T10:58:00;101558.13;;;22.65;59.01
62617;BME280;62539;51.190;6.808;2022-10-31T11:00:46;101571.22;;;22.68;58.79
62617;BME280;62539;51.190;6.808;2022-10-31T11:03:13;101578.00;;;22.75;59.23
62617;BME280;62539;51.190;6.808;2022-10-31T11:05:56;101581.31;;;22.80;59.72
62617;BME280;62539;51.190;6.808;2022-10-31T11:13:42;101549.88;;;22.95;59.39
62617;BME280;62539;51.190;6.808;2022-10-31T11:16:35;101547.16;;;22.96;59.02
62617;BME280;62539;51.190;6.808;2022-10-31T11:19:28;101539.03;;;23.01;59.26
62617;BME280;62539;51.190;6.808;2022-10-31T11:21:53;101537.09;;;23.04;58.84
62617;BME280;62539;51.190;6.808;2022-10-31T11:24:30;101531.69;;;23.08;59.05
62617;BME280;62539;51.190;6.808;2022-10-31T11:27:29;101534.41;;;23.06;58.40
62617;BME280;62539;51.190;6.808;2022-10-31T11:30:04;101542.22;;;23.09;58.57
62617;BME280;62539;51.190;6.808;2022-10-31T11:32:31;101538.53;;;23.13;58.25
62617;BME280;62539;51.190;6.808;2022-10-31T11:35:00;101531.38;;;23.15;58.31
62617;BME280;62539;51.190;6.808;2022-10-31T11:37:34;101529.72;;;23.13;58.00
62617;BME280;62539;51.190;6.808;2022-10-31T11:40:06;101527.94;;;23.13;58.49
62617;BME280;62539;51.190;6.808;2022-10-31T11:42:42;101524.50;;;23.11;58.05
62617;BME280;62539;51.190;6.808;2022-10-31T11:45:36;101526.34;;;23.09;58.35
62617;BME280;62539;51.190;6.808;2022-10-31T11:48:02;101510.47;;;23.09;58.38
62617;BME280;62539;51.190;6.808;2022-10-31T11:50:42;101489.34;;;23.08;58.15
62617;BME280;62539;51.190;6.808;2022-10-31T11:53:16;101488.38;;;23.10;58.22
62617;BME280;62539;51.190;6.808;2022-10-31T11:55:46;101478.63;;;23.11;58.24
62617;BME280;62539;51.190;6.808;2022-10-31T11:58:24;101481.34;;;23.09;58.06
62617;BME280;62539;51.190;6.808;2022-10-31T12:00:54;101479.44;;;23.13;58.11
62617;BME280;62539;51.190;6.808;2022-10-31T12:08:43;101470.81;;;23.30;58.34
62617;BME280;62539;51.190;6.808;2022-10-31T12:17:22;101448.53;;;23.55;57.76
62617;BME280;62539;51.190;6.808;2022-10-31T12:22:45;101443.56;;;23.47;56.98
62617;BME280;62539;51.190;6.808;2022-10-31T12:28:34;101426.88;;;23.45;56.76
62617;BME280;62539;51.190;6.808;2022-10-31T12:40:15;101409.00;;;23.50;57.13
62617;BME280;62539;51.190;6.808;2022-10-31T12:46:01;101412.16;;;23.58;56.68
62617;BME280;62539;51.190;6.808;2022-10-31T12:48:58;101404.16;;;23.60;56.61
62617;BME280;62539;51.190;6.808;2022-10-31T12:58:01;101367.78;;;23.44;56.93
62617;BME280;62539;51.190;6.808;2022-10-31T13:00:37;101364.63;;;23.36;57.20
62617;BME280;62539;51.190;6.808;2022-10-31T13:03:23;101362.28;;;23.30;57.25
62617;BME280;62539;51.190;6.808;2022-10-31T13:05:59;101342.31;;;23.21;57.75
62617;BME280;62539;51.190;6.808;2022-10-31T13:08:39;101342.69;;;23.13;58.07
62617;BME280;62539;51.190;6.808;2022-10-31T13:11:16;101329.66;;;23.09;58.18
62617;BME280;62539;51.190;6.808;2022-10-31T13:13:55;101321.13;;;23.02;58.36
62617;BME280;62539;51.190;6.808;2022-10-31T13:16:27;101310.56;;;23.02;58.11
62617;BME280;62539;51.190;6.808;2022-10-31T13:22:30;101307.97;;;23.00;58.01
62617;BME280;62539;51.190;6.808;2022-10-31T13:25:28;101293.25;;;22.95;58.26
62617;BME280;62539;51.190;6.808;2022-10-31T13:28:12;101301.19;;;22.95;56.23
62617;BME280;62539;51.190;6.808;2022-10-31T13:30:52;101303.81;;;22.95;57.44
62617;BME280;62539;51.190;6.808;2022-10-31T13:33:19;101310.97;;;22.93;57.83
62617;BME280;62539;51.190;6.808;2022-10-31T13:36:03;101303.16;;;22.89;58.30
62617;BME280;62539;51.190;6.808;2022-10-31T13:38:41;101298.81;;;22.88;58.37
62617;BME280;62539;51.190;6.808;2022-10-31T13:41:33;101309.53;;;22.85;58.36
62617;BME280;62539;51.190;6.808;2022-10-31T13:44:14;101298.84;;;22.87;58.78
62617;BME280;62539;51.190;6.808;2022-10-31T13:46:44;101292.59;;;22.89;58.68
62617;BME280;62539;51.190;6.808;2022-10-31T13:54:38;101268.81;;;22.88;58.83
62617;BME280;62539;51.190;6.808;2022-10-31T13:57:22;101264.56;;;22.85;59.26
62617;BME280;62539;51.190;6.808;2022-10-31T14:00:27;101253.22;;;22.82;59.77
62617;BME280;62539;51.190;6.808;2022-10-31T14:02:56;101253.97;;;22.85;60.00
62617;BME280;62539;51.190;6.808;2022-10-31T14:05:29;101256.63;;;22.85;59.29
62617;BME280;62539;51.190;6.808;2022-10-31T14:08:03;101255.53;;;22.89;59.19
62617;BME280;62539;51.190;6.808;2022-10-31T14:10:48;101251.19;;;22.88;60.13
62617;BME280;62539;51.190;6.808;2022-10-31T14:13:23;101241.25;;;22.94;59.57
62617;BME280;62539;51.190;6.808;2022-10-31T14:16:04;101230.53;;;22.97;59.70
62617;BME280;62539;51.190;6.808;2022-10-31T14:18:45;101222.59;;;22.97;60.00
62617;BME280;62539;51.190;6.808;2022-10-31T14:21:27;101219.06;;;22.96;59.66
62617;BME280;62539;51.190;6.808;2022-10-31T14:23:55;101210.22;;;22.97;60.63
62617;BME280;62539;51.190;6.808;2022-10-31T14:34:41;101185.34;;;22.82;60.83
62617;BME280;62539;51.190;6.808;2022-10-31T14:49:05;101173.88;;;22.63;61.33
62617;BME280;62539;51.190;6.808;2022-10-31T14:51:47;101173.75;;;22.66;61.32
62617;BME280;62539;51.190;6.808;2022-10-31T14:54:19;101161.31;;;22.68;61.68
62617;BME280;62539;51.190;6.808;2022-10-31T14:56:56;101164.09;;;22.65;61.85